createdAt,value
2019-03-29T00:00:19.965Z,67.17
2019-03-29T00:02:48.291Z,48.30
2019-03-29T00:05:17.158Z,55.10
2019-03-29T00:07:45.463Z,46.85
2019-03-29T00:10:13.792Z,48.98
2019-03-29T00:12:42.057Z,50.35
2019-03-29T00:15:10.541Z,55.40
2019-03-29T00:17:38.992Z,65.57
2019-03-29T00:20:07.636Z,62.62
2019-03-29T00:22:36.104Z,57.60
2019-03-29T00:25:04.663Z,45.73
2019-03-29T00:27:32.917Z,53.15
2019-03-29T00:30:01.388Z,43.98
2019-03-29T00:32:29.783Z,49.45
2019-03-29T00:34:58.473Z,56.53
2019-03-29T00:37:29.604Z,72.22
2019-03-29T00:39:57.948Z,61.95
2019-03-29T00:42:26.269Z,52.20
2019-03-29T00:44:54.649Z,64.35
2019-03-29T00:47:22.992Z,48.33
2019-03-29T00:49:51.333Z,50.03
2019-03-29T00:52:19.840Z,59.75
2019-03-29T00:54:48.463Z,70.83
2019-03-29T00:57:16.717Z,90.15
2019-03-29T00:59:45.237Z,92.37
2019-03-29T01:02:13.674Z,56.50
2019-03-29T01:04:42.047Z,47.83
2019-03-29T01:07:10.655Z,45.83
2019-03-29T01:09:39.063Z,45.58
2019-03-29T01:12:07.428Z,54.83
2019-03-29T01:14:35.893Z,56.63
2019-03-29T01:17:04.432Z,52.13
2019-03-29T01:19:32.728Z,63.33
2019-03-29T01:22:01.004Z,54.45
2019-03-29T01:24:29.643Z,58.45
2019-03-29T01:26:57.967Z,56.73
2019-03-29T01:29:26.605Z,59.30
2019-03-29T01:31:54.918Z,54.20
2019-03-29T01:34:23.251Z,56.88
2019-03-29T01:36:51.591Z,71.60
2019-03-29T01:39:19.843Z,71.10
2019-03-29T01:41:48.383Z,68.75
2019-03-29T01:44:16.839Z,56.45
2019-03-29T01:46:45.104Z,64.05
2019-03-29T01:49:15.885Z,60.23
2019-03-29T01:51:45.179Z,52.25
2019-03-29T01:54:13.486Z,50.25
2019-03-29T01:56:41.914Z,55.43
2019-03-29T01:59:10.196Z,61.90
2019-03-29T02:01:38.579Z,54.40
2019-03-29T02:04:08.057Z,54.58
2019-03-29T02:09:05.378Z,53.28
2019-03-29T02:11:33.686Z,54.05
2019-03-29T02:14:02.012Z,52.05
2019-03-29T02:16:30.299Z,61.20
2019-03-29T02:18:58.899Z,83.42
2019-03-29T02:21:27.300Z,65.12
2019-03-29T02:23:56.989Z,88.50
2019-03-29T02:28:53.507Z,66.77
2019-03-29T02:31:25.641Z,83.90
2019-03-29T02:33:51.851Z,96.75
2019-03-29T02:36:20.835Z,87.80
2019-03-29T02:38:55.746Z,56.33
2019-03-29T02:41:22.202Z,66.12
2019-03-29T02:43:50.591Z,47.27
2019-03-29T02:46:19.104Z,44.63
2019-03-29T02:48:47.535Z,40.78
2019-03-29T02:51:15.875Z,46.40
2019-03-29T02:53:44.938Z,47.25
2019-03-29T02:56:13.269Z,62.38
2019-03-29T02:58:42.207Z,70.78
2019-03-29T03:01:10.516Z,54.23
2019-03-29T03:03:38.795Z,70.92
2019-03-29T03:06:07.314Z,53.75
2019-03-29T03:08:35.746Z,52.25
2019-03-29T03:11:04.253Z,50.55
2019-03-29T03:13:32.626Z,48.02
2019-03-29T03:16:01.215Z,47.23
2019-03-29T03:18:29.615Z,51.88
2019-03-29T03:20:58.279Z,50.58
2019-03-29T03:23:26.546Z,53.38
2019-03-29T03:25:55.232Z,62.55
2019-03-29T03:28:23.830Z,58.68
2019-03-29T03:30:52.276Z,53.38
2019-03-29T03:33:20.658Z,91.53
2019-03-29T03:35:49.094Z,61.23
2019-03-29T03:38:17.430Z,53.23
2019-03-29T03:40:45.714Z,56.60
2019-03-29T03:43:13.985Z,69.82
2019-03-29T03:45:42.290Z,48.35
2019-03-29T03:48:10.796Z,47.88
2019-03-29T03:50:42.410Z,40.75
2019-03-29T03:53:10.810Z,40.28
2019-03-29T03:55:40.523Z,55.80
2019-03-29T03:58:10.073Z,53.70
2019-03-29T04:00:55.093Z,43.80
2019-03-29T04:03:23.940Z,46.85
2019-03-29T04:05:52.498Z,47.60
2019-03-29T04:08:20.934Z,55.33
2019-03-29T04:10:49.228Z,48.40
2019-03-29T04:13:17.580Z,41.75
2019-03-29T04:15:45.966Z,44.27
2019-03-29T04:18:16.104Z,44.03
2019-03-29T04:20:44.968Z,43.83
2019-03-29T04:23:13.392Z,55.80
2019-03-29T04:25:41.702Z,42.27
2019-03-29T04:28:10.193Z,49.00
2019-03-29T04:30:38.500Z,41.55
2019-03-29T04:33:10.820Z,45.43
2019-03-29T04:35:37.188Z,76.72
2019-03-29T04:38:05.727Z,65.10
2019-03-29T04:40:34.370Z,50.83
2019-03-29T04:43:04.559Z,66.15
2019-03-29T04:45:35.063Z,52.05
2019-03-29T04:48:03.682Z,63.75
2019-03-29T04:50:32.022Z,64.45
2019-03-29T04:53:00.448Z,56.55
2019-03-29T04:55:29.076Z,72.85
2019-03-29T04:57:58.437Z,75.83
2019-03-29T05:00:29.708Z,75.50
2019-03-29T05:02:58.149Z,84.47
2019-03-29T05:05:26.781Z,79.87
2019-03-29T05:07:55.156Z,59.45
2019-03-29T05:10:23.859Z,66.82
2019-03-29T05:12:52.194Z,57.48
2019-03-29T05:15:20.654Z,65.62
2019-03-29T05:17:48.880Z,76.50
2019-03-29T05:20:18.035Z,76.97
2019-03-29T05:22:47.223Z,70.90
2019-03-29T05:25:15.961Z,56.55
2019-03-29T05:27:44.331Z,55.80
2019-03-29T05:30:12.821Z,48.38
2019-03-29T05:32:41.510Z,42.58
2019-03-29T05:35:09.937Z,42.65
2019-03-29T05:37:38.492Z,42.03
2019-03-29T05:40:07.028Z,45.80
2019-03-29T05:42:35.614Z,39.15
2019-03-29T05:45:08.321Z,34.65
2019-03-29T05:47:36.809Z,37.42
2019-03-29T05:50:07.127Z,39.03
2019-03-29T05:52:35.576Z,42.25
2019-03-29T05:55:05.870Z,41.05
2019-03-29T05:57:34.442Z,42.60
2019-03-29T06:00:06.634Z,42.30
2019-03-29T06:02:35.070Z,40.60
2019-03-29T06:05:04.223Z,38.90
2019-03-29T06:07:32.661Z,40.92
2019-03-29T06:10:01.229Z,37.70
2019-03-29T06:12:31.708Z,37.75
2019-03-29T06:15:00.381Z,36.70
2019-03-29T06:17:28.828Z,37.83
2019-03-29T06:19:57.370Z,37.23
2019-03-29T06:22:25.943Z,37.30
2019-03-29T06:24:54.609Z,37.23
2019-03-29T06:27:23.113Z,40.70
2019-03-29T06:29:52.079Z,39.50
2019-03-29T06:32:20.657Z,38.65
2019-03-29T06:34:49.048Z,38.83
2019-03-29T06:37:17.832Z,41.98
2019-03-29T06:39:46.645Z,42.73
2019-03-29T06:42:15.135Z,40.98
2019-03-29T06:44:44.484Z,41.73
2019-03-29T06:47:14.860Z,44.18
2019-03-29T06:49:46.996Z,44.60
2019-03-29T06:52:15.548Z,56.75
2019-03-29T06:54:44.220Z,50.40
2019-03-29T06:57:12.832Z,45.52
2019-03-29T06:59:42.997Z,45.12
2019-03-29T07:02:15.195Z,49.15
2019-03-29T07:04:43.743Z,45.38
2019-03-29T07:07:12.369Z,45.65
2019-03-29T07:09:40.872Z,47.98
2019-03-29T07:12:09.519Z,51.77
2019-03-29T07:14:39.733Z,47.03
2019-03-29T07:17:10.281Z,49.15
2019-03-29T07:19:38.394Z,45.70
2019-03-29T07:22:06.837Z,47.13
2019-03-29T07:24:37.017Z,45.45
2019-03-29T07:27:07.065Z,47.90
2019-03-29T07:32:03.681Z,45.33
2019-03-29T07:34:32.369Z,44.05
2019-03-29T07:37:00.836Z,44.75
2019-03-29T07:39:29.398Z,44.48
2019-03-29T07:41:58.012Z,46.10
2019-03-29T07:44:27.028Z,46.48
2019-03-29T07:46:55.464Z,47.33
2019-03-29T07:49:43.144Z,45.20
2019-03-29T07:52:08.894Z,45.12
2019-03-29T07:54:37.381Z,44.27
2019-03-29T07:57:05.673Z,46.83
2019-03-29T07:59:34.066Z,46.85
2019-03-29T08:02:02.800Z,44.03
2019-03-29T08:04:32.422Z,43.33
2019-03-29T08:07:00.815Z,42.23
2019-03-29T08:09:29.460Z,41.48
2019-03-29T08:11:57.928Z,41.55
2019-03-29T08:14:28.446Z,43.17
2019-03-29T08:16:56.937Z,38.80
2019-03-29T08:19:25.260Z,37.95
2019-03-29T08:21:53.704Z,36.38
2019-03-29T08:24:22.088Z,36.13
2019-03-29T08:26:50.704Z,35.25
2019-03-29T08:29:19.315Z,34.98
2019-03-29T08:31:47.711Z,33.60
2019-03-29T08:34:16.388Z,33.55
2019-03-29T08:36:44.896Z,32.20
2019-03-29T08:39:26.995Z,33.23
2019-03-29T08:41:43.868Z,33.80
2019-03-29T08:44:12.467Z,33.55
2019-03-29T08:46:41.084Z,32.95
2019-03-29T08:49:09.944Z,30.70
2019-03-29T08:51:41.270Z,33.33
2019-03-29T08:54:08.529Z,31.52
2019-03-29T08:56:36.848Z,28.65
2019-03-29T08:59:05.137Z,30.05
2019-03-29T09:01:33.595Z,29.48
2019-03-29T09:04:05.700Z,30.48
2019-03-29T09:06:33.061Z,28.42
2019-03-29T09:09:02.301Z,29.02
2019-03-29T09:11:30.659Z,27.60
2019-03-29T09:13:59.051Z,27.60
2019-03-29T09:16:27.445Z,27.93
2019-03-29T09:18:56.222Z,27.82
2019-03-29T09:21:24.710Z,19.20
2019-03-29T09:23:53.113Z,15.98
2019-03-29T09:26:21.466Z,17.92
2019-03-29T09:28:49.740Z,20.50
2019-03-29T09:31:18.063Z,24.55
2019-03-29T09:33:46.381Z,26.48
2019-03-29T09:36:14.872Z,26.17
2019-03-29T09:38:43.836Z,25.40
2019-03-29T09:41:12.346Z,24.30
2019-03-29T09:43:43.645Z,24.18
2019-03-29T09:46:12.013Z,24.18
2019-03-29T09:48:40.657Z,25.62
2019-03-29T09:51:08.966Z,25.62
2019-03-29T09:53:40.832Z,24.87
2019-03-29T09:58:35.188Z,26.90
2019-03-29T10:01:03.697Z,22.00
2019-03-29T10:03:32.071Z,22.35
2019-03-29T10:06:00.464Z,25.45
2019-03-29T10:08:28.998Z,24.65
2019-03-29T10:10:57.307Z,24.15
2019-03-29T10:13:25.743Z,24.60
2019-03-29T10:15:54.223Z,24.20
2019-03-29T10:18:22.603Z,23.55
2019-03-29T10:20:51.065Z,25.37
2019-03-29T10:23:19.442Z,24.05
2019-03-29T10:25:47.714Z,21.75
2019-03-29T10:28:22.257Z,24.32
2019-03-29T10:30:52.301Z,22.37
2019-03-29T10:35:52.926Z,18.55
2019-03-29T10:38:19.041Z,19.30
2019-03-29T10:40:48.350Z,19.50
2019-03-29T10:43:16.848Z,19.70
2019-03-29T10:45:45.368Z,20.45
2019-03-29T10:48:13.718Z,21.97
2019-03-29T10:50:43.785Z,21.90
2019-03-29T10:53:12.955Z,22.55
2019-03-29T10:55:41.445Z,22.87
2019-03-29T10:58:10.184Z,24.25
2019-03-29T11:00:39.864Z,24.50
2019-03-29T11:03:08.378Z,23.45
2019-03-29T11:05:36.851Z,21.68
2019-03-29T11:08:05.202Z,22.37
2019-03-29T11:10:38.519Z,20.08
2019-03-29T11:13:13.410Z,18.48
2019-03-29T11:18:05.345Z,17.95
2019-03-29T11:20:33.729Z,17.63
2019-03-29T11:23:02.388Z,17.65
2019-03-29T11:25:30.841Z,17.25
2019-03-29T11:28:00.988Z,18.05
2019-03-29T11:30:41.551Z,16.95
2019-03-29T11:35:27.087Z,17.27
2019-03-29T11:37:55.728Z,17.80
2019-03-29T11:40:24.198Z,15.58
2019-03-29T11:42:52.635Z,16.15
2019-03-29T11:45:20.972Z,16.20
2019-03-29T11:47:49.315Z,16.70
2019-03-29T11:50:17.609Z,16.17
2019-03-29T11:52:49.166Z,16.27
2019-03-29T11:55:23.261Z,17.12
2019-03-29T11:57:55.596Z,17.02
2019-03-29T12:00:28.367Z,16.55
2019-03-29T12:02:56.754Z,16.75
2019-03-29T12:05:25.060Z,17.35
2019-03-29T12:07:53.558Z,17.15
2019-03-29T12:10:22.018Z,17.20
2019-03-29T12:12:50.303Z,18.27
2019-03-29T12:15:18.948Z,17.12
2019-03-29T12:17:47.567Z,16.40
2019-03-29T12:20:15.987Z,17.45
2019-03-29T12:22:44.569Z,16.23
2019-03-29T12:25:13.650Z,15.63
2019-03-29T12:27:42.072Z,16.63
2019-03-29T12:30:10.529Z,16.10
2019-03-29T12:32:39.007Z,17.27
2019-03-29T12:35:09.970Z,17.05
2019-03-29T12:37:37.750Z,19.10
2019-03-29T12:40:07.864Z,16.60
2019-03-29T12:45:05.509Z,14.68
2019-03-29T12:50:01.523Z,15.13
2019-03-29T12:52:30.014Z,15.98
2019-03-29T12:54:58.404Z,16.77
2019-03-29T12:57:26.863Z,16.05
2019-03-29T12:59:55.342Z,16.65
2019-03-29T13:02:23.748Z,16.65
2019-03-29T13:04:52.100Z,16.15
2019-03-29T13:07:20.737Z,15.83
2019-03-29T13:09:49.199Z,15.58
2019-03-29T13:12:17.882Z,16.75
2019-03-29T13:14:46.175Z,16.37
2019-03-29T13:17:14.703Z,16.77
2019-03-29T13:19:43.239Z,16.70
2019-03-29T13:22:12.204Z,15.35
2019-03-29T13:24:40.466Z,16.40
2019-03-29T13:27:08.764Z,16.57
2019-03-29T13:29:37.385Z,17.17
2019-03-29T13:32:06.134Z,17.12
2019-03-29T13:34:34.612Z,17.30
2019-03-29T13:37:03.454Z,16.30
2019-03-29T13:39:31.892Z,16.80
2019-03-29T13:42:00.695Z,17.27
2019-03-29T13:44:29.426Z,17.07
2019-03-29T13:46:57.727Z,15.70
2019-03-29T13:49:26.008Z,17.73
2019-03-29T13:51:54.678Z,17.17
2019-03-29T13:54:23.185Z,17.48
2019-03-29T13:56:51.718Z,16.52
2019-03-29T13:59:20.175Z,15.88
2019-03-29T14:01:48.775Z,16.20
2019-03-29T14:04:17.140Z,15.13
2019-03-29T14:06:45.490Z,16.30
2019-03-29T14:09:13.834Z,16.73
2019-03-29T14:11:42.237Z,14.63
2019-03-29T14:14:10.724Z,15.93
2019-03-29T14:16:39.188Z,14.80
2019-03-29T14:19:07.853Z,15.23
2019-03-29T14:21:36.395Z,14.30
2019-03-29T14:24:05.068Z,15.98
2019-03-29T14:26:33.524Z,14.70
2019-03-29T14:29:02.005Z,15.43
2019-03-29T14:31:30.561Z,15.88
2019-03-29T14:33:59.019Z,15.20
2019-03-29T14:36:27.560Z,16.00
2019-03-29T14:38:55.816Z,16.80
2019-03-29T14:41:24.088Z,17.07
2019-03-29T14:43:52.541Z,17.17
2019-03-29T14:46:21.037Z,16.85
2019-03-29T14:48:49.333Z,17.02
2019-03-29T14:51:19.539Z,17.98
2019-03-29T14:56:15.866Z,18.60
2019-03-29T14:58:44.322Z,18.45
2019-03-29T15:01:12.759Z,18.42
2019-03-29T15:03:41.151Z,17.77
2019-03-29T15:06:09.695Z,16.95
2019-03-29T15:08:38.173Z,16.62
2019-03-29T15:11:21.281Z,14.90
2019-03-29T15:13:38.264Z,14.63
2019-03-29T15:16:06.520Z,14.63
2019-03-29T15:18:35.015Z,14.28
2019-03-29T15:21:03.389Z,14.15
2019-03-29T15:23:31.918Z,14.95
2019-03-29T15:26:00.237Z,15.80
2019-03-29T15:28:28.584Z,17.65
2019-03-29T15:30:56.849Z,16.32
2019-03-29T15:33:25.391Z,14.80
2019-03-29T15:35:53.803Z,15.83
2019-03-29T15:38:22.249Z,15.70
2019-03-29T15:40:50.721Z,15.23
2019-03-29T15:43:19.423Z,15.78
2019-03-29T15:45:47.948Z,14.20
2019-03-29T15:48:16.586Z,13.00
2019-03-29T15:50:45.059Z,12.82
2019-03-29T15:53:13.558Z,11.00
2019-03-29T15:55:42.032Z,13.22
2019-03-29T15:58:10.389Z,11.78
2019-03-29T16:00:38.878Z,12.60
2019-03-29T16:03:07.675Z,11.85
2019-03-29T16:05:36.094Z,11.75
2019-03-29T16:08:04.583Z,11.78
2019-03-29T16:10:32.967Z,11.03
2019-03-29T16:13:14.811Z,11.65
2019-03-29T16:15:43.395Z,11.30
2019-03-29T16:18:11.735Z,10.70
2019-03-29T16:20:40.897Z,11.83
2019-03-29T16:23:09.319Z,10.20
2019-03-29T16:25:37.651Z,10.35
2019-03-29T16:28:06.123Z,8.60
2019-03-29T16:30:34.438Z,10.53
2019-03-29T16:33:02.798Z,9.85
2019-03-29T16:35:31.393Z,10.00
2019-03-29T16:37:59.801Z,10.70
2019-03-29T16:40:30.878Z,9.78
2019-03-29T16:42:58.546Z,9.20
2019-03-29T16:45:27.313Z,9.18
2019-03-29T16:47:55.940Z,10.65
2019-03-29T16:50:24.562Z,10.82
2019-03-29T16:52:53.227Z,10.05
2019-03-29T16:55:23.100Z,9.85
2019-03-29T16:57:51.426Z,10.08
2019-03-29T17:00:19.968Z,10.20
2019-03-29T17:02:52.104Z,11.65
2019-03-29T17:05:24.659Z,12.05
2019-03-29T17:07:53.167Z,13.08
2019-03-29T17:10:21.549Z,13.15
2019-03-29T17:12:53.126Z,13.60
2019-03-29T17:15:22.199Z,13.30
2019-03-29T17:17:54.060Z,13.53
2019-03-29T17:20:22.605Z,13.00
2019-03-29T17:22:52.451Z,14.38
2019-03-29T17:25:22.513Z,18.07
2019-03-29T17:30:37.506Z,15.08
2019-03-29T17:33:05.912Z,14.45
2019-03-29T17:35:39.940Z,14.47
2019-03-29T17:38:08.522Z,15.48
2019-03-29T17:40:37.014Z,15.83
2019-03-29T17:43:05.652Z,17.52
2019-03-29T17:45:34.472Z,19.70
2019-03-29T17:48:03.153Z,18.92
2019-03-29T17:50:43.696Z,17.15
2019-03-29T17:53:12.056Z,17.23
2019-03-29T17:55:40.472Z,18.50
2019-03-29T17:58:09.004Z,17.23
2019-03-29T18:00:55.567Z,16.48
2019-03-29T18:03:24.284Z,15.28
2019-03-29T18:05:55.206Z,15.20
2019-03-29T18:08:26.850Z,16.02
2019-03-29T18:10:55.358Z,16.65
2019-03-29T18:13:33.476Z,15.28
2019-03-29T18:16:01.969Z,16.00
2019-03-29T18:18:30.472Z,17.90
2019-03-29T18:20:58.909Z,17.65
2019-03-29T18:23:27.392Z,17.42
2019-03-29T18:25:55.808Z,17.40
2019-03-29T18:28:24.234Z,16.25
2019-03-29T18:30:52.683Z,16.75
2019-03-29T18:33:26.562Z,15.38
2019-03-29T18:35:55.966Z,15.48
2019-03-29T18:38:24.619Z,16.02
2019-03-29T18:41:02.007Z,16.32
2019-03-29T18:43:30.420Z,15.90
2019-03-29T18:45:58.759Z,16.15
2019-03-29T18:48:29.163Z,17.17
2019-03-29T18:50:57.588Z,16.42
2019-03-29T18:53:27.076Z,16.65
2019-03-29T18:58:28.402Z,17.45
2019-03-29T19:00:57.048Z,16.65
2019-03-29T19:03:25.369Z,18.75
2019-03-29T19:05:53.914Z,30.37
2019-03-29T19:08:22.258Z,30.52
2019-03-29T19:10:50.580Z,34.53
2019-03-29T19:13:19.080Z,34.60
2019-03-29T19:15:47.680Z,36.05
2019-03-29T19:18:17.676Z,31.97
2019-03-29T19:23:16.527Z,27.93
2019-03-29T19:28:20.439Z,26.35
2019-03-29T19:30:51.512Z,24.35
2019-03-29T19:33:19.973Z,24.90
2019-03-29T19:35:48.428Z,25.00
2019-03-29T19:38:16.784Z,25.97
2019-03-29T19:40:45.297Z,24.90
2019-03-29T19:43:13.730Z,25.00
2019-03-29T19:45:42.132Z,28.17
2019-03-29T19:48:10.775Z,27.75
2019-03-29T19:50:39.316Z,30.23
2019-03-29T19:53:10.574Z,27.75
2019-03-29T19:55:39.120Z,29.15
2019-03-29T19:58:07.499Z,27.93
2019-03-29T20:00:38.309Z,29.45
2019-03-29T20:03:06.936Z,25.20
2019-03-29T20:05:35.451Z,25.30
2019-03-29T20:08:03.993Z,28.10
2019-03-29T20:10:34.108Z,27.42
2019-03-29T20:13:02.535Z,29.10
2019-03-29T20:15:30.975Z,29.50
2019-03-29T20:17:59.417Z,25.85
2019-03-29T20:20:27.957Z,23.62
2019-03-29T20:22:56.605Z,24.07
2019-03-29T20:25:25.057Z,23.73
2019-03-29T20:27:53.862Z,26.00
2019-03-29T20:30:22.197Z,28.25
2019-03-29T20:32:50.782Z,30.95
2019-03-29T20:35:19.100Z,33.33
2019-03-29T20:37:47.516Z,39.08
2019-03-29T20:40:17.525Z,38.60
2019-03-29T20:45:13.869Z,38.53
2019-03-29T20:47:42.763Z,37.58
2019-03-29T20:50:11.352Z,38.48
2019-03-29T20:52:40.014Z,37.65
2019-03-29T20:55:08.564Z,35.65
2019-03-29T20:57:37.078Z,36.50
2019-03-29T21:00:09.392Z,36.42
2019-03-29T21:02:38.536Z,35.98
2019-03-29T21:05:07.529Z,33.18
2019-03-29T21:07:35.853Z,32.93
2019-03-29T21:10:06.600Z,32.73
2019-03-29T21:12:38.963Z,34.83
2019-03-29T21:15:07.377Z,34.03
2019-03-29T21:17:36.873Z,37.23
2019-03-29T21:20:08.453Z,39.65
2019-03-29T21:22:36.958Z,38.48
2019-03-29T21:25:06.773Z,39.10
2019-03-29T21:27:35.404Z,39.23
2019-03-29T21:30:06.948Z,40.67
2019-03-29T21:32:35.399Z,36.85
2019-03-29T21:35:05.300Z,36.88
2019-03-29T21:37:33.794Z,37.45
2019-03-29T21:40:02.400Z,39.05
2019-03-29T21:42:31.268Z,38.42
2019-03-29T21:44:59.742Z,37.85
2019-03-29T21:47:28.422Z,38.10
2019-03-29T21:49:56.847Z,38.08
2019-03-29T21:52:25.261Z,36.75
2019-03-29T21:54:53.620Z,39.70
2019-03-29T21:57:22.199Z,39.58
2019-03-29T21:59:50.695Z,39.40
2019-03-29T22:02:21.461Z,36.90
2019-03-29T22:04:49.749Z,38.20
2019-03-29T22:07:19.298Z,40.75
2019-03-29T22:09:47.643Z,39.75
2019-03-29T22:12:16.113Z,41.45
2019-03-29T22:14:44.517Z,39.15
2019-03-29T22:17:12.998Z,37.93
2019-03-29T22:19:41.464Z,40.88
2019-03-29T22:22:09.896Z,39.63
2019-03-29T22:24:38.265Z,39.13
2019-03-29T22:27:06.565Z,40.52
2019-03-29T22:29:34.932Z,40.73
2019-03-29T22:32:04.540Z,38.15
2019-03-29T22:34:33.188Z,37.08
2019-03-29T22:37:01.507Z,39.55
2019-03-29T22:39:29.898Z,39.58
2019-03-29T22:41:58.266Z,39.23
2019-03-29T22:44:26.548Z,36.93
2019-03-29T22:46:55.106Z,38.42
2019-03-29T22:49:23.579Z,37.98
2019-03-29T22:51:51.902Z,36.85
2019-03-29T22:54:20.271Z,40.80
2019-03-29T22:56:48.578Z,39.75
2019-03-29T22:59:17.006Z,35.90
2019-03-29T23:01:45.619Z,38.50
2019-03-29T23:04:14.235Z,40.35
2019-03-29T23:06:42.876Z,39.18
2019-03-29T23:09:11.929Z,43.73
2019-03-29T23:11:40.695Z,41.40
2019-03-29T23:14:08.990Z,40.12
2019-03-29T23:16:37.862Z,40.28
2019-03-29T23:19:07.200Z,37.48
2019-03-29T23:21:35.747Z,40.63
2019-03-29T23:24:04.237Z,39.88
2019-03-29T23:26:32.536Z,43.73
2019-03-29T23:29:00.916Z,44.83
2019-03-29T23:31:29.358Z,40.12
2019-03-29T23:33:58.663Z,40.03
2019-03-29T23:36:27.098Z,42.45
2019-03-29T23:38:55.433Z,41.02
2019-03-29T23:41:23.962Z,39.92
2019-03-29T23:43:52.483Z,42.65
2019-03-29T23:46:20.900Z,42.50
2019-03-29T23:48:49.411Z,42.78
2019-03-29T23:51:18.117Z,47.03
2019-03-29T23:53:46.465Z,41.90
2019-03-29T23:56:15.169Z,44.15
2019-03-29T23:58:45.439Z,39.85
